»·PEaware :: SWA1 KDEN-KLAX

SWA1 :: KDEN-KLAX

FLIGHT INFORMATION

Flight Status: Arrived
Operator:
Southwest Airlines
More flights by this operator :: More flights under this callsign
Pilot: Maximilliano F. (23467)
Aircraft: BOEING 737-800
(B738)
More flights by this aircraft type
Origin: KDEN Denver Intl
United States
Destination: KLAX Los Angeles Intl
United States
More flights between these airports :: More routes between these airports
Route: +BAYLR4 TEHRU JASSE Q90 DNERO ANJLL4
File this flight plan on PilotEdge
Remarks: RMK / SIMBRIEF
Altitude:
(Current/Filed)
36,000ft
Speed:
(Current/Filed)
461kts
Departed: 08-Nov-19 12:20 PM
Arrived: 08-Nov-19 02:06 PM
Distance/Time
Traveled:
747nm/1:46
Distance/Time
To Go:
Arrived

Flight Plot

Page will automatically refresh every two minutes.

Flight plan parsing failed; only flown route is shown


Map Options




Map Legend


Flown Route
Filed Route
Departure Airport
Arrival Airport
Navaid (VOR, NDB)
Fix

Horizontal Profiles

Position Reports

Time Latitude Longitude Heading Altitude Ground
Speed
08-Nov-19 11:39 39.863618 -104.677326 180 5375ft 0kts
08-Nov-19 11:40 39.863618 -104.677326 180 5375ft 0kts
08-Nov-19 11:41 39.863618 -104.677326 180 5375ft 0kts
08-Nov-19 11:42 39.863618 -104.677326 180 5375ft 0kts
08-Nov-19 11:43 39.863618 -104.677326 180 5375ft 0kts
08-Nov-19 11:44 39.863618 -104.677326 180 5375ft 0kts
08-Nov-19 11:45 39.863618 -104.677326 180 5375ft 0kts
08-Nov-19 11:46 39.863618 -104.677326 180 5375ft 0kts
08-Nov-19 11:47 39.863618 -104.677326 180 5375ft 0kts
08-Nov-19 11:48 39.863618 -104.677326 180 5375ft 0kts
08-Nov-19 11:49 39.863618 -104.677326 180 5375ft 0kts
08-Nov-19 11:50 39.863618 -104.677326 180 5375ft 0kts
08-Nov-19 11:51 39.863618 -104.677326 180 5375ft 0kts
08-Nov-19 11:52 39.863618 -104.677326 180 5375ft 0kts
08-Nov-19 11:53 39.863618 -104.677326 180 5375ft 0kts
08-Nov-19 11:54 39.863618 -104.677326 180 5375ft 0kts
08-Nov-19 11:55 39.863618 -104.677326 180 5375ft 0kts
08-Nov-19 11:56 39.863618 -104.677326 180 5375ft 0kts
08-Nov-19 11:57 39.863618 -104.677326 180 5375ft 0kts
08-Nov-19 11:58 39.863618 -104.677326 180 5375ft 0kts
08-Nov-19 11:59 39.863618 -104.677326 180 5375ft 0kts
08-Nov-19 12:00 39.863662 -104.677326 180 5375ft 2kts
08-Nov-19 12:01 39.864222 -104.677152 237 5375ft 2kts
08-Nov-19 12:02 39.864281 -104.676885 265 5375ft 0kts
08-Nov-19 12:03 39.864281 -104.676885 265 5375ft 0kts
08-Nov-19 12:04 39.864281 -104.676885 265 5375ft 0kts
08-Nov-19 12:05 39.864281 -104.676885 265 5375ft 0kts
08-Nov-19 12:06 39.864281 -104.676885 265 5375ft 0kts
08-Nov-19 12:07 39.864439 -104.677610 300 5375ft 5kts
08-Nov-19 12:08 39.864784 -104.680509 269 5370ft 7kts
08-Nov-19 12:09 39.864759 -104.681263 256 5370ft 4kts
08-Nov-19 12:10 39.864262 -104.682194 257 5370ft 1kts
08-Nov-19 12:11 39.863331 -104.683902 179 5370ft 7kts
08-Nov-19 12:12 39.860286 -104.683949 180 5372ft 13kts
08-Nov-19 12:13 39.856082 -104.683991 180 5372ft 16kts
08-Nov-19 12:14 39.851720 -104.684044 180 5372ft 16kts
08-Nov-19 12:15 39.846317 -104.684101 181 5367ft 20kts
08-Nov-19 12:16 39.841905 -104.684158 180 5365ft 0kts
08-Nov-19 12:17 39.841905 -104.684158 180 5365ft 0kts
08-Nov-19 12:18 39.840722 -104.684451 250 5365ft 5kts
08-Nov-19 12:19 39.840811 -104.707338 271 5365ft 173kts
08-Nov-19 12:20 39.835909 -104.777586 252 7431ft 225kts
08-Nov-19 12:21 39.811190 -104.864735 251 9705ft 282kts
08-Nov-19 12:22 39.783442 -104.967290 253 11220ft 321kts
08-Nov-19 12:23 39.748060 -105.078318 249 14079ft 342kts
08-Nov-19 12:24 39.707063 -105.193355 250 16816ft 358kts
08-Nov-19 12:25 39.664167 -105.313243 250 19321ft 373kts
08-Nov-19 12:26 39.619576 -105.437003 249 21668ft 386kts
08-Nov-19 12:27 39.573000 -105.565041 249 23761ft 399kts
08-Nov-19 12:29 39.530830 -105.699471 254 25648ft 409kts
08-Nov-19 12:30 39.491993 -105.840063 254 27394ft 421kts
08-Nov-19 12:31 39.451725 -105.984773 254 29017ft 433kts
08-Nov-19 12:32 39.410253 -106.132909 255 30527ft 443kts
08-Nov-19 12:33 39.367685 -106.282843 254 32206ft 446kts
08-Nov-19 12:34 39.325108 -106.433068 254 33793ft 446kts
08-Nov-19 12:35 39.282188 -106.583351 255 35307ft 445kts
08-Nov-19 12:36 39.235457 -106.730052 243 36480ft 454kts
08-Nov-19 12:37 39.159478 -106.865159 237 36515ft 467kts
08-Nov-19 12:38 39.082149 -106.998740 237 36549ft 467kts
08-Nov-19 12:39 39.004243 -107.132778 237 36547ft 468kts
08-Nov-19 12:40 38.926416 -107.266132 236 36499ft 467kts
08-Nov-19 12:41 38.847328 -107.401150 236 36459ft 490kts
08-Nov-19 12:42 38.764681 -107.541504 236 36453ft 494kts
08-Nov-19 12:43 38.682479 -107.680593 235 36455ft 494kts
08-Nov-19 12:44 38.599524 -107.820377 235 36455ft 494kts
08-Nov-19 12:45 38.516540 -107.959575 234 36457ft 495kts
08-Nov-19 12:46 38.433028 -108.099054 234 36452ft 495kts
08-Nov-19 12:47 38.349163 -108.238528 234 36447ft 496kts
08-Nov-19 12:47 38.279505 -108.353924 234 36454ft 495kts
08-Nov-19 12:49 38.181459 -108.515664 234 36460ft 495kts
08-Nov-19 12:50 38.099301 -108.650581 234 36461ft 495kts
08-Nov-19 12:50 38.029070 -108.765531 234 36460ft 494kts
08-Nov-19 12:51 37.944845 -108.902799 233 36460ft 494kts
08-Nov-19 12:53 37.846720 -109.061997 233 36443ft 493kts
08-Nov-19 12:53 37.776281 -109.175806 233 36465ft 493kts
08-Nov-19 12:54 37.692123 -109.311273 233 36484ft 492kts
08-Nov-19 12:55 37.607350 -109.447175 232 36485ft 492kts
08-Nov-19 12:56 37.522871 -109.582052 232 36486ft 492kts
08-Nov-19 12:57 37.438071 -109.716934 232 36484ft 493kts
08-Nov-19 12:58 37.353294 -109.851231 232 36484ft 491kts
08-Nov-19 12:59 37.268187 -109.985489 232 36477ft 492kts
08-Nov-19 13:00 37.183064 -110.119233 231 36444ft 491kts
08-Nov-19 13:01 37.097930 -110.252465 231 36432ft 490kts
08-Nov-19 13:02 37.012542 -110.385574 231 36432ft 489kts
08-Nov-19 13:03 36.927280 -110.517968 231 36434ft 490kts
08-Nov-19 13:04 36.842046 -110.649809 231 36431ft 488kts
08-Nov-19 13:05 36.756901 -110.781048 230 36428ft 489kts
08-Nov-19 13:06 36.671072 -110.912728 230 36427ft 489kts
08-Nov-19 13:07 36.585471 -111.043536 230 36417ft 488kts
08-Nov-19 13:08 36.499733 -111.174046 230 36425ft 488kts
08-Nov-19 13:09 36.413737 -111.304379 230 36434ft 488kts
08-Nov-19 13:10 36.327400 -111.434816 229 36429ft 488kts
08-Nov-19 13:11 36.241289 -111.564409 229 36434ft 488kts
08-Nov-19 13:12 36.155390 -111.692919 229 36435ft 487kts
08-Nov-19 13:13 36.071998 -111.824951 239 36431ft 489kts
08-Nov-19 13:14 36.017920 -111.979193 248 36437ft 490kts
08-Nov-19 13:15 35.967754 -112.135740 247 36412ft 490kts
08-Nov-19 13:16 35.917578 -112.291445 247 36423ft 488kts
08-Nov-19 13:17 35.867489 -112.446465 248 36418ft 487kts
08-Nov-19 13:18 35.817263 -112.600616 247 36423ft 484kts
08-Nov-19 13:19 35.766936 -112.754496 247 36419ft 484kts
08-Nov-19 13:20 35.716679 -112.907452 247 36383ft 482kts
08-Nov-19 13:21 35.666288 -113.059825 247 36321ft 481kts
08-Nov-19 13:22 35.615576 -113.212394 247 36313ft 483kts
08-Nov-19 13:23 35.564006 -113.364688 247 36310ft 484kts
08-Nov-19 13:24 35.512720 -113.517602 247 36312ft 485kts
08-Nov-19 13:25 35.461445 -113.669584 246 36302ft 486kts
08-Nov-19 13:26 35.409676 -113.822335 246 36292ft 485kts
08-Nov-19 13:27 35.357712 -113.974857 246 36284ft 485kts
08-Nov-19 13:28 35.305478 -114.127417 246 36227ft 487kts
08-Nov-19 13:29 35.253146 -114.279517 246 36158ft 484kts
08-Nov-19 13:30 35.200894 -114.430643 246 36156ft 483kts
08-Nov-19 13:31 35.148289 -114.582056 246 36157ft 481kts
08-Nov-19 13:32 35.096142 -114.730254 245 36154ft 480kts
08-Nov-19 13:33 35.043799 -114.880579 245 36154ft 480kts
08-Nov-19 13:34 34.983283 -115.024976 240 36163ft 479kts
08-Nov-19 13:35 34.920967 -115.168551 241 36191ft 479kts
08-Nov-19 13:36 34.859901 -115.308729 241 36203ft 478kts
08-Nov-19 13:37 34.797476 -115.451438 241 36211ft 478kts
08-Nov-19 13:38 34.742675 -115.598209 245 36217ft 477kts
08-Nov-19 13:39 34.688601 -115.744920 244 36219ft 475kts
08-Nov-19 13:40 34.634485 -115.891066 244 36215ft 469kts
08-Nov-19 13:41 34.582138 -116.032691 244 36256ft 462kts
08-Nov-19 13:42 34.529482 -116.175150 244 36178ft 456kts
08-Nov-19 13:43 34.476488 -116.317841 244 33711ft 475kts
08-Nov-19 13:44 34.422948 -116.461430 244 30089ft 453kts
08-Nov-19 13:45 34.368380 -116.594937 242 27757ft 457kts
08-Nov-19 13:46 34.315089 -116.725085 242 25768ft 429kts
08-Nov-19 13:47 34.264141 -116.851970 242 23555ft 410kts
08-Nov-19 13:48 34.215127 -116.973567 244 21414ft 394kts
08-Nov-19 13:49 34.180137 -117.097713 251 19142ft 386kts
08-Nov-19 13:50 34.146689 -117.220289 250 16805ft 379kts
08-Nov-19 13:51 34.113666 -117.340182 251 14607ft 367kts
08-Nov-19 13:52 34.083730 -117.456374 253 12469ft 357kts
08-Nov-19 13:53 34.055876 -117.566409 252 11842ft 328kts
08-Nov-19 13:54 34.029308 -117.670272 252 10426ft 309kts
08-Nov-19 13:55 34.015228 -117.767346 263 9353ft 290kts
08-Nov-19 13:56 34.005872 -117.864734 263 7893ft 287kts
08-Nov-19 13:57 33.996614 -117.959070 263 6469ft 271kts
08-Nov-19 13:58 33.988804 -118.037938 263 5262ft 249kts
08-Nov-19 13:59 33.981641 -118.109757 263 4134ft 233kts
08-Nov-19 14:00 33.975345 -118.177417 263 3933ft 217kts
08-Nov-19 14:01 33.968844 -118.238833 263 2844ft 211kts
08-Nov-19 14:02 33.963361 -118.291569 263 1987ft 178kts
08-Nov-19 14:03 33.958158 -118.342744 263 1132ft 153kts
08-Nov-19 14:04 33.952915 -118.394067 263 298ft 145kts
08-Nov-19 14:05 33.949072 -118.419747 233 123ft 13kts
08-Nov-19 14:06 33.946915 -118.421506 83 121ft 10kts
08-Nov-19 14:07 33.947241 -118.418372 83 124ft 10kts
08-Nov-19 14:08 33.947810 -118.413787 71 126ft 13kts
08-Nov-19 14:09 33.948329 -118.409062 83 127ft 14kts
08-Nov-19 14:10 33.948902 -118.403456 86 123ft 13kts
08-Nov-19 14:11 33.947611 -118.402011 109 122ft 4kts

Navigation Log

Ident Type
Flight plan parsing failed, navigation log unavailable